Time;durP1;ratioP1;P1;durP2;ratioP2;P2;SDS_P1;SDS_P2;PMS_P1;PMS_P2;Temp;Humidity;BMP_temperature;BMP_pressure;BME280_temperature;BME280_humidity;BME280_pressure;Samples;Min_cycle;Max_cycle;Signal;HPM_P1;HPM_P2
2022/12/19 00:01:22;;;;;;;31.87;17.07;;;;;;;;;;5062529;28;20434;-56
2022/12/19 00:03:49;;;;;;;25.30;14.70;;;;;;;;;;5058584;28;20434;-54
2022/12/19 00:06:17;;;;;;;31.27;16.13;;;;;;;;;;5064053;28;20503;-55
2022/12/19 00:08:46;;;;;;;34.00;15.17;;;;;;;;;;5053800;28;20480;-54
2022/12/19 00:11:12;;;;;;;25.80;15.33;;;;;;;;;;5062237;28;20459;-57
2022/12/19 00:13:38;;;;;;;24.73;17.13;;;;;;;;;;5056864;28;20461;-56
2022/12/19 00:16:05;;;;;;;29.73;18.37;;;;;;;;;;5055438;28;20519;-56
2022/12/19 00:18:31;;;;;;;24.97;14.37;;;;;;;;;;5029252;28;20453;-55
2022/12/19 00:21:00;;;;;;;31.13;14.67;;;;;;;;;;5053304;28;21070;-57
2022/12/19 00:23:27;;;;;;;26.80;16.63;;;;;;;;;;5011428;28;20454;-57
2022/12/19 00:25:53;;;;;;;28.60;15.20;;;;;;;;;;5058253;28;20445;-55
2022/12/19 00:28:18;;;;;;;30.40;14.50;;;;;;;;;;5032604;28;20472;-56
2022/12/19 00:30:44;;;;;;;32.13;16.80;;;;;;;;;;5057762;28;20449;-55
2022/12/19 00:33:10;;;;;;;34.33;16.67;;;;;;;;;;5055788;28;20581;-54
2022/12/19 00:35:36;;;;;;;35.30;17.33;;;;;;;;;;5057473;28;20488;-55
2022/12/19 00:38:03;;;;;;;31.73;16.00;;;;;;;;;;5037994;28;20426;-53
2022/12/19 00:40:29;;;;;;;25.63;14.27;;;;;;;;;;5064222;28;20442;-55
2022/12/19 00:42:55;;;;;;;36.67;18.57;;;;;;;;;;5030010;28;20441;-55
2022/12/19 00:45:21;;;;;;;21.40;13.13;;;;;;;;;;5053368;28;20542;-54
2022/12/19 00:47:47;;;;;;;27.70;15.80;;;;;;;;;;5035583;28;20885;-55
2022/12/19 00:50:13;;;;;;;31.03;16.47;;;;;;;;;;5061110;28;20445;-55
2022/12/19 00:52:39;;;;;;;23.10;12.33;;;;;;;;;;5029682;28;20449;-56
2022/12/19 00:55:05;;;;;;;30.07;14.83;;;;;;;;;;5058063;28;20433;-55
2022/12/19 00:57:31;;;;;;;33.20;16.17;;;;;;;;;;5017715;28;20477;-55
2022/12/19 00:59:57;;;;;;;28.73;17.17;;;;;;;;;;5062298;28;20473;-55
2022/12/19 01:02:23;;;;;;;26.07;14.33;;;;;;;;;;5052829;28;20421;-56
2022/12/19 01:04:49;;;;;;;32.97;15.57;;;;;;;;;;5059664;28;20456;-54
2022/12/19 01:07:15;;;;;;;35.37;16.73;;;;;;;;;;5035787;28;20915;-55
2022/12/19 01:09:41;;;;;;;26.87;14.60;;;;;;;;;;5054678;28;20481;-55
2022/12/19 01:14:52;;;;;;;33.07;16.17;;;;;;;;;;5058280;28;20448;-56
2022/12/19 01:17:18;;;;;;;26.90;16.30;;;;;;;;;;5034881;28;20580;-54
2022/12/19 01:19:44;;;;;;;35.00;17.30;;;;;;;;;;5058918;28;20433;-55
2022/12/19 01:22:10;;;;;;;25.40;14.77;;;;;;;;;;5055209;28;20508;-56
2022/12/19 01:24:36;;;;;;;32.57;16.97;;;;;;;;;;5059792;28;20845;-55
2022/12/19 01:27:05;;;;;;;33.17;17.10;;;;;;;;;;5020486;28;20848;-55
2022/12/19 01:29:31;;;;;;;18.23;11.93;;;;;;;;;;5045227;28;20480;-54
2022/12/19 01:31:57;;;;;;;30.00;13.97;;;;;;;;;;5037200;28;20579;-54
2022/12/19 01:34:23;;;;;;;28.00;13.93;;;;;;;;;;5050815;28;20484;-55
2022/12/19 01:36:49;;;;;;;21.80;14.00;;;;;;;;;;5042995;28;20433;-55
2022/12/19 01:39:15;;;;;;;29.13;15.93;;;;;;;;;;5044507;28;20491;-55
2022/12/19 01:41:41;;;;;;;35.40;15.53;;;;;;;;;;5052201;28;20434;-55
2022/12/19 01:44:07;;;;;;;25.83;16.37;;;;;;;;;;5036888;28;21116;-54
2022/12/19 01:46:44;;;;;;;27.73;14.40;;;;;;;;;;5056087;28;20445;-55
2022/12/19 01:49:14;;;;;;;24.43;14.33;;;;;;;;;;5040221;28;20485;-53
2022/12/19 01:51:41;;;;;;;29.60;14.13;;;;;;;;;;5054748;28;20445;-55
2022/12/19 01:54:08;;;;;;;29.67;14.10;;;;;;;;;;5054317;28;20461;-54
2022/12/19 01:56:51;;;;;;;27.87;14.30;;;;;;;;;;5040893;28;20442;-55
2022/12/19 01:59:19;;;;;;;28.20;14.20;;;;;;;;;;5039969;28;20448;-56
2022/12/19 02:01:45;;;;;;;33.43;16.07;;;;;;;;;;5067675;28;20520;-54
2022/12/19 02:04:11;;;;;;;36.47;15.80;;;;;;;;;;5055545;28;20489;-55
2022/12/19 02:06:37;;;;;;;26.97;14.60;;;;;;;;;;5059849;28;20437;-55
2022/12/19 02:09:03;;;;;;;28.80;15.10;;;;;;;;;;5040723;28;20522;-54
2022/12/19 02:11:29;;;;;;;19.93;12.40;;;;;;;;;;5056771;28;20432;-54
2022/12/19 02:13:55;;;;;;;29.10;16.77;;;;;;;;;;5060116;28;20438;-54
2022/12/19 02:16:30;;;;;;;27.50;14.33;;;;;;;;;;5056953;28;20430;-56
2022/12/19 02:19:15;;;;;;;31.57;15.53;;;;;;;;;;5041368;28;20890;-56
2022/12/19 02:21:58;;;;;;;26.60;15.27;;;;;;;;;;5054915;28;20433;-56
2022/12/19 02:24:30;;;;;;;27.77;13.77;;;;;;;;;;5075389;28;20438;-54
2022/12/19 02:27:15;;;;;;;30.07;16.30;;;;;;;;;;5030537;28;20429;-55
2022/12/19 02:29:41;;;;;;;31.60;17.37;;;;;;;;;;5063839;28;20479;-53
2022/12/19 02:32:10;;;;;;;31.43;15.40;;;;;;;;;;5057115;28;20438;-55
2022/12/19 02:34:38;;;;;;;26.17;13.57;;;;;;;;;;5063865;28;20483;-54
2022/12/19 02:37:08;;;;;;;29.07;15.73;;;;;;;;;;5038531;28;21464;-56
2022/12/19 02:39:39;;;;;;;26.60;14.47;;;;;;;;;;5073084;28;20480;-55
2022/12/19 02:42:05;;;;;;;29.93;13.93;;;;;;;;;;5049518;28;20465;-54
2022/12/19 02:44:34;;;;;;;29.33;15.90;;;;;;;;;;5060611;28;20453;-54
2022/12/19 02:47:00;;;;;;;32.50;16.30;;;;;;;;;;5043359;28;20438;-55
2022/12/19 02:49:27;;;;;;;30.70;16.67;;;;;;;;;;5053586;28;20482;-54
2022/12/19 02:51:53;;;;;;;30.00;14.27;;;;;;;;;;5049361;28;20648;-55
2022/12/19 02:54:19;;;;;;;25.30;14.27;;;;;;;;;;5048057;28;22272;-54
2022/12/19 02:56:53;;;;;;;28.27;15.80;;;;;;;;;;5056441;28;20463;-54
2022/12/19 02:59:25;;;;;;;28.00;14.43;;;;;;;;;;5056206;28;20429;-55
2022/12/19 03:01:52;;;;;;;30.30;14.87;;;;;;;;;;5035231;28;20445;-55
2022/12/19 03:04:37;;;;;;;27.73;13.07;;;;;;;;;;5040316;28;20465;-54
2022/12/19 03:07:12;;;;;;;24.37;13.50;;;;;;;;;;5042193;28;20970;-55
2022/12/19 03:09:57;;;;;;;19.53;13.87;;;;;;;;;;5062019;28;20473;-55
2022/12/19 03:12:30;;;;;;;28.57;15.67;;;;;;;;;;5056590;28;20437;-55
2022/12/19 03:14:57;;;;;;;38.80;15.73;;;;;;;;;;5061335;28;20776;-55
2022/12/19 03:17:23;;;;;;;23.87;14.87;;;;;;;;;;5054570;28;20527;-54
2022/12/19 03:19:49;;;;;;;26.80;16.50;;;;;;;;;;5056800;28;20492;-55
2022/12/19 03:22:15;;;;;;;25.70;13.63;;;;;;;;;;5057237;28;20508;-56
2022/12/19 03:24:41;;;;;;;23.30;14.77;;;;;;;;;;5073806;28;20468;-56
2022/12/19 03:27:15;;;;;;;29.80;13.93;;;;;;;;;;5040424;28;20526;-55
2022/12/19 03:29:45;;;;;;;26.23;13.63;;;;;;;;;;5051653;28;20538;-55
2022/12/19 03:32:15;;;;;;;24.50;15.23;;;;;;;;;;5031802;28;20883;-56
2022/12/19 03:34:48;;;;;;;23.47;14.10;;;;;;;;;;5064397;28;20461;-55
2022/12/19 03:37:14;;;;;;;28.43;15.57;;;;;;;;;;5011942;28;20437;-56
2022/12/19 03:39:40;;;;;;;22.33;13.00;;;;;;;;;;5057385;28;20785;-55
2022/12/19 03:44:51;;;;;;;26.00;14.20;;;;;;;;;;5058317;28;20441;-57
2022/12/19 03:47:24;;;;;;;31.97;13.70;;;;;;;;;;5056632;28;20422;-56
2022/12/19 03:49:50;;;;;;;25.97;16.00;;;;;;;;;;5062025;28;20488;-54
2022/12/19 03:52:28;;;;;;;25.77;12.80;;;;;;;;;;5056463;28;20510;-55
2022/12/19 03:55:03;;;;;;;25.97;15.10;;;;;;;;;;5059606;28;20438;-55
2022/12/19 03:57:30;;;;;;;34.33;15.00;;;;;;;;;;5038989;28;23228;-55
2022/12/19 03:59:59;;;;;;;22.33;14.60;;;;;;;;;;5058538;28;20413;-55
2022/12/19 04:02:25;;;;;;;27.27;15.30;;;;;;;;;;5064480;28;21223;-55
2022/12/19 04:04:55;;;;;;;25.73;15.17;;;;;;;;;;5059732;28;20422;-55
2022/12/19 04:07:21;;;;;;;24.83;15.90;;;;;;;;;;5069406;28;20432;-54
2022/12/19 04:09:47;;;;;;;27.17;13.80;;;;;;;;;;5061590;28;20676;-54
2022/12/19 04:12:18;;;;;;;26.50;15.03;;;;;;;;;;5012835;28;20434;-55
2022/12/19 04:14:43;;;;;;;18.57;11.63;;;;;;;;;;5031803;28;21011;-55
2022/12/19 04:17:13;;;;;;;26.40;14.00;;;;;;;;;;5077757;28;20532;-55
2022/12/19 04:19:43;;;;;;;25.97;13.97;;;;;;;;;;5049275;28;20464;-56
2022/12/19 04:22:29;;;;;;;24.90;12.13;;;;;;;;;;5076309;28;20455;-56
2022/12/19 04:24:55;;;;;;;22.37;12.97;;;;;;;;;;5057923;28;20534;-57
2022/12/19 04:27:21;;;;;;;19.87;11.53;;;;;;;;;;5053206;28;20512;-55
2022/12/19 04:29:48;;;;;;;20.17;12.13;;;;;;;;;;5031777;28;20619;-58
2022/12/19 04:32:14;;;;;;;24.43;11.90;;;;;;;;;;5057210;28;20635;-54
2022/12/19 04:34:40;;;;;;;16.07;9.73;;;;;;;;;;5065636;28;20429;-54
2022/12/19 04:37:06;;;;;;;22.63;11.90;;;;;;;;;;5057640;28;20428;-52
2022/12/19 04:39:32;;;;;;;23.40;11.80;;;;;;;;;;5052052;28;20479;-53
2022/12/19 04:41:58;;;;;;;22.47;12.30;;;;;;;;;;5070585;28;20437;-56
2022/12/19 04:44:24;;;;;;;18.17;10.73;;;;;;;;;;5016194;28;20513;-55
2022/12/19 04:46:50;;;;;;;26.93;11.43;;;;;;;;;;5057607;28;20523;-60
2022/12/19 04:49:16;;;;;;;17.93;12.57;;;;;;;;;;5036171;28;20660;-53
2022/12/19 04:51:42;;;;;;;18.27;10.90;;;;;;;;;;5056924;28;20889;-54
2022/12/19 04:54:08;;;;;;;20.97;11.97;;;;;;;;;;5047998;28;20532;-55
2022/12/19 04:56:34;;;;;;;25.47;12.50;;;;;;;;;;5057648;28;20935;-57
2022/12/19 04:59:00;;;;;;;19.70;10.83;;;;;;;;;;5032615;28;20529;-55
2022/12/19 05:01:26;;;;;;;26.60;12.33;;;;;;;;;;5060225;28;20426;-54
2022/12/19 05:03:52;;;;;;;17.77;11.13;;;;;;;;;;5060131;28;20470;-55
2022/12/19 05:06:18;;;;;;;21.20;11.90;;;;;;;;;;5060397;28;20797;-54
2022/12/19 05:08:44;;;;;;;17.07;9.87;;;;;;;;;;5035842;28;20508;-53
2022/12/19 05:11:12;;;;;;;18.37;10.87;;;;;;;;;;5056817;28;20438;-54
2022/12/19 05:13:37;;;;;;;20.73;13.77;;;;;;;;;;5013794;28;20445;-53
2022/12/19 05:16:07;;;;;;;23.00;12.13;;;;;;;;;;5059104;28;20433;-53
2022/12/19 05:18:33;;;;;;;21.03;12.57;;;;;;;;;;5035404;28;20867;-54
2022/12/19 05:20:59;;;;;;;19.37;11.67;;;;;;;;;;5061019;28;20467;-55
2022/12/19 05:23:25;;;;;;;19.17;12.80;;;;;;;;;;5054977;28;20429;-54
2022/12/19 05:25:51;;;;;;;19.33;9.77;;;;;;;;;;5054225;28;20746;-55
2022/12/19 05:28:18;;;;;;;18.00;11.57;;;;;;;;;;5035561;28;21375;-54
2022/12/19 05:30:44;;;;;;;23.40;10.73;;;;;;;;;;5057399;28;20438;-57
2022/12/19 05:33:09;;;;;;;18.70;11.47;;;;;;;;;;5033075;28;20454;-59
2022/12/19 05:35:35;;;;;;;18.33;10.57;;;;;;;;;;5057559;28;20451;-54
2022/12/19 05:38:03;;;;;;;16.70;9.97;;;;;;;;;;5035538;28;20856;-54
2022/12/19 05:40:29;;;;;;;22.37;12.47;;;;;;;;;;5057348;28;20469;-54
2022/12/19 05:43:07;;;;;;;21.03;12.63;;;;;;;;;;5022739;28;20977;-55
2022/12/19 05:45:33;;;;;;;25.17;12.27;;;;;;;;;;5057829;28;21001;-53
2022/12/19 05:47:59;;;;;;;25.50;9.70;;;;;;;;;;5054285;28;20433;-55
2022/12/19 05:50:25;;;;;;;22.40;11.60;;;;;;;;;;5067303;28;20441;-53
2022/12/19 05:52:51;;;;;;;17.90;11.27;;;;;;;;;;5061869;28;20425;-54
2022/12/19 05:55:17;;;;;;;18.07;10.20;;;;;;;;;;5060399;28;20563;-52
2022/12/19 05:57:43;;;;;;;16.97;11.27;;;;;;;;;;5049042;28;21157;-54
2022/12/19 06:00:09;;;;;;;19.30;12.40;;;;;;;;;;5049369;28;20554;-55
2022/12/19 06:02:35;;;;;;;23.10;13.57;;;;;;;;;;5057153;28;20441;-56
2022/12/19 06:05:01;;;;;;;21.70;12.73;;;;;;;;;;5047207;28;20456;-55
2022/12/19 06:07:28;;;;;;;21.70;12.80;;;;;;;;;;5059332;28;20426;-53
2022/12/19 06:09:54;;;;;;;21.37;11.73;;;;;;;;;;5058772;28;20481;-56
2022/12/19 06:12:24;;;;;;;21.30;11.43;;;;;;;;;;5057244;28;20430;-55
2022/12/19 06:14:50;;;;;;;15.33;12.07;;;;;;;;;;5025625;28;20445;-54
2022/12/19 06:17:16;;;;;;;23.60;9.70;;;;;;;;;;5065647;28;20490;-55
2022/12/19 06:19:42;;;;;;;18.80;10.30;;;;;;;;;;5034943;28;20472;-54
2022/12/19 06:22:08;;;;;;;20.87;10.10;;;;;;;;;;5061361;28;20440;-55
2022/12/19 06:24:33;;;;;;;16.23;11.23;;;;;;;;;;5056557;28;20963;-52
2022/12/19 06:26:59;;;;;;;18.90;10.97;;;;;;;;;;5062576;28;20966;-53
2022/12/19 06:29:25;;;;;;;19.17;10.67;;;;;;;;;;5052922;28;20469;-53
2022/12/19 06:31:51;;;;;;;19.40;10.67;;;;;;;;;;5037527;28;20444;-54
2022/12/19 06:34:17;;;;;;;15.97;9.40;;;;;;;;;;5057564;28;20467;-54
2022/12/19 06:36:43;;;;;;;16.97;9.67;;;;;;;;;;5033924;28;20532;-54
2022/12/19 06:39:11;;;;;;;20.83;10.40;;;;;;;;;;5055271;28;20446;-54
2022/12/19 06:44:22;;;;;;;19.60;9.17;;;;;;;;;;5057401;28;22153;-53
2022/12/19 06:46:47;;;;;;;19.80;9.80;;;;;;;;;;5014662;28;20437;-54
2022/12/19 06:49:14;;;;;;;16.70;9.33;;;;;;;;;;5056986;28;20481;-54
2022/12/19 06:51:40;;;;;;;18.70;9.37;;;;;;;;;;5036575;28;20548;-54
2022/12/19 06:54:05;;;;;;;20.20;11.07;;;;;;;;;;5057697;28;20635;-55
2022/12/19 06:56:35;;;;;;;16.67;9.60;;;;;;;;;;5051372;28;20425;-55
2022/12/19 06:59:01;;;;;;;17.73;9.33;;;;;;;;;;5057445;28;21025;-55
2022/12/19 07:01:30;;;;;;;15.00;9.10;;;;;;;;;;5053213;28;20475;-54
2022/12/19 07:03:55;;;;;;;17.90;8.87;;;;;;;;;;5052275;28;20429;-54
2022/12/19 07:06:21;;;;;;;13.57;9.27;;;;;;;;;;5036169;28;20502;-55
2022/12/19 07:08:47;;;;;;;16.10;10.27;;;;;;;;;;5055761;28;20477;-54
2022/12/19 07:11:13;;;;;;;14.67;9.00;;;;;;;;;;5032486;28;20454;-55
2022/12/19 07:13:39;;;;;;;19.93;7.97;;;;;;;;;;5062278;28;20448;-54
2022/12/19 07:16:05;;;;;;;18.53;9.37;;;;;;;;;;5016269;28;20457;-53
2022/12/19 07:18:33;;;;;;;16.10;6.93;;;;;;;;;;5070449;28;20444;-54
2022/12/19 07:20:59;;;;;;;15.10;8.10;;;;;;;;;;5034323;28;20444;-56
2022/12/19 07:23:25;;;;;;;14.13;9.20;;;;;;;;;;5063662;28;20442;-55
2022/12/19 07:25:51;;;;;;;20.33;7.97;;;;;;;;;;5054959;28;20437;-55
2022/12/19 07:28:17;;;;;;;10.17;6.50;;;;;;;;;;5055573;28;20436;-56
2022/12/19 07:30:43;;;;;;;12.27;7.77;;;;;;;;;;5047482;28;20445;-53
2022/12/19 07:33:09;;;;;;;10.17;7.00;;;;;;;;;;5060033;28;20513;-54
2022/12/19 07:35:35;;;;;;;17.90;9.53;;;;;;;;;;5036780;28;21005;-54
2022/12/19 07:38:02;;;;;;;12.30;8.57;;;;;;;;;;5057334;28;20437;-55
2022/12/19 07:40:31;;;;;;;14.90;7.40;;;;;;;;;;5033244;28;21115;-53
2022/12/19 07:43:03;;;;;;;10.97;6.80;;;;;;;;;;5067191;28;21016;-56
2022/12/19 07:45:29;;;;;;;11.83;7.10;;;;;;;;;;5056086;28;20608;-56
2022/12/19 07:47:55;;;;;;;11.60;7.10;;;;;;;;;;5060673;28;20445;-56
2022/12/19 07:50:21;;;;;;;17.23;8.93;;;;;;;;;;5015219;28;20786;-55
2022/12/19 07:52:47;;;;;;;11.77;8.27;;;;;;;;;;5061314;28;20497;-56
2022/12/19 07:55:13;;;;;;;12.00;8.00;;;;;;;;;;5043382;28;21281;-56
2022/12/19 07:57:39;;;;;;;13.93;6.77;;;;;;;;;;5061667;28;20504;-55
2022/12/19 08:00:11;;;;;;;19.87;10.43;;;;;;;;;;5038753;28;21924;-57
2022/12/19 08:02:37;;;;;;;11.37;6.80;;;;;;;;;;5050384;28;20528;-55
2022/12/19 08:05:04;;;;;;;24.40;11.17;;;;;;;;;;5026759;28;20899;-54
2022/12/19 08:07:30;;;;;;;18.10;8.10;;;;;;;;;;5056285;28;20445;-57
2022/12/19 08:09:56;;;;;;;12.73;7.73;;;;;;;;;;5031157;28;20891;-54
2022/12/19 08:12:22;;;;;;;14.07;7.27;;;;;;;;;;5057608;28;20430;-55
2022/12/19 08:14:48;;;;;;;15.93;7.63;;;;;;;;;;5035598;28;20993;-56
2022/12/19 08:17:14;;;;;;;13.10;8.23;;;;;;;;;;5057535;28;20490;-58
2022/12/19 08:19:40;;;;;;;12.83;8.63;;;;;;;;;;5033990;28;20473;-57
2022/12/19 08:22:06;;;;;;;13.60;7.93;;;;;;;;;;5062336;28;20433;-57
2022/12/19 08:24:32;;;;;;;15.67;9.00;;;;;;;;;;5014144;28;20454;-54
2022/12/19 08:26:58;;;;;;;16.20;7.77;;;;;;;;;;5055137;28;20849;-57
2022/12/19 08:29:24;;;;;;;16.10;8.70;;;;;;;;;;5038163;28;20501;-56
2022/12/19 08:31:50;;;;;;;15.63;7.47;;;;;;;;;;5052947;28;20480;-56
2022/12/19 08:34:16;;;;;;;12.30;7.53;;;;;;;;;;5033022;28;20709;-56
2022/12/19 08:36:42;;;;;;;14.83;8.43;;;;;;;;;;5056319;28;20479;-56
2022/12/19 08:39:08;;;;;;;10.13;6.30;;;;;;;;;;5036940;28;20566;-56
2022/12/19 08:41:34;;;;;;;11.83;6.07;;;;;;;;;;5058213;28;20428;-55
2022/12/19 08:44:00;;;;;;;13.33;7.33;;;;;;;;;;5032767;28;20735;-57
2022/12/19 08:46:26;;;;;;;10.13;6.37;;;;;;;;;;5056386;28;20438;-56
2022/12/19 08:48:52;;;;;;;13.13;7.80;;;;;;;;;;5042627;28;21044;-56
2022/12/19 08:51:18;;;;;;;11.00;6.63;;;;;;;;;;5055351;28;20649;-56
2022/12/19 08:53:45;;;;;;;12.10;8.13;;;;;;;;;;5047123;28;20874;-56
2022/12/19 08:56:12;;;;;;;12.10;7.40;;;;;;;;;;5050952;28;20954;-56
2022/12/19 08:58:38;;;;;;;14.90;7.90;;;;;;;;;;5037547;28;20436;-56
2022/12/19 09:01:08;;;;;;;14.20;7.97;;;;;;;;;;5039061;28;20441;-55
2022/12/19 09:03:34;;;;;;;12.77;6.63;;;;;;;;;;5047143;28;20449;-55
2022/12/19 09:06:01;;;;;;;11.10;7.63;;;;;;;;;;5043854;28;20954;-54
2022/12/19 09:08:27;;;;;;;14.17;8.37;;;;;;;;;;5050536;28;20488;-56
2022/12/19 09:11:00;;;;;;;11.73;6.90;;;;;;;;;;5039863;28;20481;-56
2022/12/19 09:13:26;;;;;;;14.67;7.97;;;;;;;;;;4998930;28;20453;-54
2022/12/19 09:15:59;;;;;;;10.27;6.90;;;;;;;;;;5052227;28;20430;-55
2022/12/19 09:18:25;;;;;;;11.97;8.10;;;;;;;;;;5027109;28;20468;-55
2022/12/19 09:20:53;;;;;;;12.53;8.00;;;;;;;;;;5053990;28;20441;-55
2022/12/19 09:23:20;;;;;;;11.70;7.53;;;;;;;;;;5035343;28;20502;-55
2022/12/19 09:25:46;;;;;;;11.27;7.17;;;;;;;;;;5054196;28;20531;-53
2022/12/19 09:28:12;;;;;;;12.13;7.93;;;;;;;;;;5033342;28;20457;-60
2022/12/19 09:30:38;;;;;;;13.13;8.20;;;;;;;;;;5047868;28;20441;-55
2022/12/19 09:33:03;;;;;;;13.83;8.60;;;;;;;;;;5013108;28;20449;-55
2022/12/19 09:35:30;;;;;;;14.77;8.67;;;;;;;;;;5055307;28;20448;-56
2022/12/19 09:37:56;;;;;;;14.60;9.93;;;;;;;;;;5032703;28;20461;-55
2022/12/19 09:40:22;;;;;;;13.40;8.27;;;;;;;;;;5053468;28;20579;-60
2022/12/19 09:42:48;;;;;;;14.20;8.23;;;;;;;;;;5064631;28;20437;-54
2022/12/19 09:45:33;;;;;;;13.37;9.23;;;;;;;;;;5030354;28;20724;-55
2022/12/19 09:47:59;;;;;;;15.77;7.40;;;;;;;;;;5030648;28;20441;-60
2022/12/19 09:50:43;;;;;;;13.90;7.83;;;;;;;;;;5054691;28;20928;-55
2022/12/19 09:53:17;;;;;;;10.20;6.40;;;;;;;;;;5036056;28;20448;-57
2022/12/19 09:55:43;;;;;;;15.53;7.27;;;;;;;;;;5060490;28;20885;-55
2022/12/19 09:58:28;;;;;;;14.57;8.30;;;;;;;;;;5051999;28;20484;-56
2022/12/19 10:00:56;;;;;;;19.70;8.23;;;;;;;;;;5043984;28;20541;-56
2022/12/19 10:03:34;;;;;;;18.00;8.53;;;;;;;;;;5044455;28;21010;-56
2022/12/19 10:06:01;;;;;;;13.97;8.07;;;;;;;;;;5061663;28;20436;-55
2022/12/19 10:08:40;;;;;;;13.70;7.40;;;;;;;;;;5019551;28;20510;-54
2022/12/19 10:11:12;;;;;;;17.13;8.80;;;;;;;;;;5053009;28;20440;-55
2022/12/19 10:13:41;;;;;;;12.23;7.17;;;;;;;;;;5047272;28;20464;-54
2022/12/19 10:16:13;;;;;;;13.67;7.73;;;;;;;;;;5063037;28;20746;-56
2022/12/19 10:18:42;;;;;;;13.10;7.20;;;;;;;;;;5039061;28;20437;-55
2022/12/19 10:21:32;;;;;;;12.90;7.97;;;;;;;;;;5054115;28;20653;-55
2022/12/19 10:24:07;;;;;;;14.83;8.80;;;;;;;;;;5024198;28;21019;-55
2022/12/19 10:26:36;;;;;;;14.67;8.53;;;;;;;;;;5046602;28;20562;-56
2022/12/19 10:29:06;;;;;;;10.10;7.10;;;;;;;;;;5047535;28;20473;-55
2022/12/19 10:31:35;;;;;;;15.13;8.20;;;;;;;;;;5053957;28;20490;-55
2022/12/19 10:34:02;;;;;;;8.87;6.53;;;;;;;;;;5039518;28;20820;-55
2022/12/19 10:36:30;;;;;;;13.60;8.20;;;;;;;;;;5064098;28;20440;-55
2022/12/19 10:39:01;;;;;;;13.33;9.07;;;;;;;;;;5058444;28;20647;-54
2022/12/19 10:41:31;;;;;;;15.03;7.40;;;;;;;;;;5060679;28;20957;-55
2022/12/19 10:44:05;;;;;;;14.27;8.47;;;;;;;;;;5029017;28;20446;-55
2022/12/19 10:46:41;;;;;;;11.30;6.47;;;;;;;;;;5063955;28;20429;-54
2022/12/19 10:49:17;;;;;;;14.00;7.40;;;;;;;;;;5039301;28;20546;-57
2022/12/19 10:51:53;;;;;;;14.30;8.13;;;;;;;;;;5040037;28;20535;-55
2022/12/19 10:54:19;;;;;;;15.10;7.07;;;;;;;;;;5036025;28;21016;-55
2022/12/19 10:56:45;;;;;;;11.60;7.30;;;;;;;;;;5059987;28;20441;-53
2022/12/19 10:59:16;;;;;;;13.63;7.93;;;;;;;;;;5008576;28;20923;-55
2022/12/19 11:01:42;;;;;;;8.97;7.10;;;;;;;;;;5056865;28;20464;-61
2022/12/19 11:04:25;;;;;;;16.50;9.07;;;;;;;;;;5057470;28;20476;-56
2022/12/19 11:06:54;;;;;;;12.10;8.17;;;;;;;;;;5054759;28;20861;-55
2022/12/19 11:09:19;;;;;;;11.53;7.73;;;;;;;;;;5017570;28;20492;-56
2022/12/19 11:11:46;;;;;;;10.53;7.50;;;;;;;;;;5053720;28;20471;-55
2022/12/19 11:14:30;;;;;;;9.70;7.00;;;;;;;;;;5012436;28;20815;-55
2022/12/19 11:16:56;;;;;;;13.73;8.73;;;;;;;;;;5061375;28;20438;-57
2022/12/19 11:19:28;;;;;;;15.90;6.97;;;;;;;;;;5058220;28;20432;-54
2022/12/19 11:22:02;;;;;;;11.43;7.87;;;;;;;;;;5055501;28;20426;-55
2022/12/19 11:24:35;;;;;;;12.43;7.03;;;;;;;;;;5013083;28;20468;-54
2022/12/19 11:27:01;;;;;;;10.53;7.10;;;;;;;;;;5057036;28;20553;-55
2022/12/19 11:29:45;;;;;;;9.60;6.73;;;;;;;;;;5033670;28;20477;-54
2022/12/19 11:32:35;;;;;;;10.30;7.37;;;;;;;;;;5058153;28;20674;-56
2022/12/19 11:35:21;;;;;;;12.50;6.67;;;;;;;;;;5046708;28;20430;-56
2022/12/19 11:37:57;;;;;;;11.00;6.80;;;;;;;;;;5053643;28;21174;-54
2022/12/19 11:40:42;;;;;;;12.00;7.20;;;;;;;;;;5052020;28;20518;-56
2022/12/19 11:43:20;;;;;;;10.80;6.20;;;;;;;;;;5045727;28;20426;-57
2022/12/19 11:46:05;;;;;;;12.40;7.10;;;;;;;;;;5019369;28;21013;-56
2022/12/19 11:48:31;;;;;;;10.73;6.90;;;;;;;;;;5038301;28;22990;-56
2022/12/19 11:51:15;;;;;;;10.07;7.33;;;;;;;;;;5050255;28;20450;-55
2022/12/19 11:53:44;;;;;;;12.63;7.00;;;;;;;;;;5041588;28;21332;-56
2022/12/19 11:56:11;;;;;;;10.17;6.70;;;;;;;;;;5043500;28;20444;-55
2022/12/19 11:58:37;;;;;;;8.33;5.80;;;;;;;;;;5030173;28;20954;-54
2022/12/19 12:01:17;;;;;;;10.07;6.30;;;;;;;;;;5057169;28;20445;-56
2022/12/19 12:03:51;;;;;;;11.23;7.20;;;;;;;;;;5030906;28;20445;-58
2022/12/19 12:06:17;;;;;;;12.60;7.83;;;;;;;;;;5051799;28;20494;-57
2022/12/19 12:08:58;;;;;;;14.30;6.60;;;;;;;;;;5032082;28;20476;-57
2022/12/19 12:11:31;;;;;;;15.17;7.10;;;;;;;;;;5046979;28;20797;-58
2022/12/19 12:14:07;;;;;;;13.07;5.77;;;;;;;;;;5053779;28;20457;-56
2022/12/19 12:16:42;;;;;;;7.90;5.57;;;;;;;;;;5069409;28;20523;-56
2022/12/19 12:19:08;;;;;;;8.30;5.93;;;;;;;;;;5002709;28;20565;-56
2022/12/19 12:21:39;;;;;;;9.30;6.03;;;;;;;;;;5056349;28;20501;-57
2022/12/19 12:24:12;;;;;;;10.17;6.03;;;;;;;;;;5046724;28;20437;-54
2022/12/19 12:26:44;;;;;;;11.80;6.73;;;;;;;;;;5064405;28;20446;-57
2022/12/19 12:29:13;;;;;;;9.83;5.87;;;;;;;;;;5017064;28;20480;-52
2022/12/19 12:31:57;;;;;;;12.97;7.20;;;;;;;;;;5060034;28;20434;-56
2022/12/19 12:34:29;;;;;;;7.37;5.13;;;;;;;;;;5039418;28;20442;-55
2022/12/19 12:37:01;;;;;;;9.07;5.87;;;;;;;;;;5051625;28;20795;-55
2022/12/19 12:39:54;;;;;;;10.20;5.40;;;;;;;;;;5035106;28;20502;-57
2022/12/19 12:42:38;;;;;;;6.33;4.90;;;;;;;;;;5051677;28;20433;-52
2022/12/19 12:45:17;;;;;;;9.10;5.40;;;;;;;;;;5032883;28;20444;-55
2022/12/19 12:47:43;;;;;;;6.50;5.13;;;;;;;;;;5063861;28;20523;-54
2022/12/19 12:50:12;;;;;;;5.60;4.50;;;;;;;;;;5009219;28;20488;-54
2022/12/19 12:52:39;;;;;;;7.10;4.50;;;;;;;;;;5068671;28;20437;-55
2022/12/19 12:55:05;;;;;;;7.83;4.73;;;;;;;;;;5056294;28;20437;-55
2022/12/19 12:57:35;;;;;;;6.90;5.10;;;;;;;;;;5070015;28;20573;-53
2022/12/19 13:00:31;;;;;;;5.33;4.00;;;;;;;;;;5020400;28;20448;-55
2022/12/19 13:03:02;;;;;;;7.73;4.77;;;;;;;;;;5051747;28;20473;-54
2022/12/19 13:05:34;;;;;;;7.90;5.00;;;;;;;;;;5031711;28;21266;-55
2022/12/19 13:08:00;;;;;;;6.10;4.60;;;;;;;;;;5072334;28;20428;-55
2022/12/19 13:10:26;;;;;;;4.43;3.27;;;;;;;;;;5021225;28;20485;-55
2022/12/19 13:12:59;;;;;;;8.90;3.90;;;;;;;;;;5060137;28;20524;-54
2022/12/19 13:15:30;;;;;;;6.90;4.33;;;;;;;;;;5039052;28;20424;-55
2022/12/19 13:17:56;;;;;;;5.03;4.50;;;;;;;;;;5043344;28;20446;-55
2022/12/19 13:20:32;;;;;;;10.80;5.17;;;;;;;;;;5016835;28;20460;-55
2022/12/19 13:22:58;;;;;;;4.90;3.70;;;;;;;;;;5052112;28;20433;-54
2022/12/19 13:25:30;;;;;;;7.83;4.30;;;;;;;;;;5053146;28;20453;-55
2022/12/19 13:27:57;;;;;;;6.37;3.70;;;;;;;;;;5049142;28;20898;-55
2022/12/19 13:30:23;;;;;;;8.70;7.53;;;;;;;;;;5052120;28;20466;-55
2022/12/19 13:32:58;;;;;;;8.70;4.60;;;;;;;;;;5018311;28;20430;-55
2022/12/19 13:35:27;;;;;;;7.03;4.60;;;;;;;;;;5051116;28;20445;-55
2022/12/19 13:38:05;;;;;;;10.60;6.67;;;;;;;;;;5028127;28;20528;-55
2022/12/19 13:40:32;;;;;;;11.37;4.80;;;;;;;;;;5053992;28;20434;-55
2022/12/19 13:45:48;;;;;;;7.90;4.70;;;;;;;;;;5052796;28;20521;-55
2022/12/19 13:48:17;;;;;;;8.03;5.30;;;;;;;;;;5057775;28;21019;-55
2022/12/19 13:51:06;;;;;;;5.97;4.63;;;;;;;;;;5043705;28;20422;-56
2022/12/19 13:53:32;;;;;;;10.57;4.90;;;;;;;;;;5029091;28;20449;-62
2022/12/19 13:55:59;;;;;;;12.20;5.93;;;;;;;;;;5055401;28;20445;-55
2022/12/19 13:58:29;;;;;;;8.27;5.30;;;;;;;;;;5053116;28;20433;-56
2022/12/19 14:00:57;;;;;;;13.37;6.40;;;;;;;;;;5028890;28;21198;-55
2022/12/19 14:03:32;;;;;;;9.50;6.00;;;;;;;;;;5053034;28;20575;-55
2022/12/19 14:06:05;;;;;;;11.70;7.30;;;;;;;;;;5031632;28;21000;-55
2022/12/19 14:08:31;;;;;;;7.97;6.40;;;;;;;;;;5058557;28;20588;-55
2022/12/19 14:10:57;;;;;;;11.40;7.23;;;;;;;;;;5039544;28;20491;-58
2022/12/19 14:16:13;;;;;;;8.53;6.07;;;;;;;;;;5032999;28;21015;-54
2022/12/19 14:18:39;;;;;;;11.30;6.30;;;;;;;;;;5059848;28;20447;-54
2022/12/19 14:21:11;;;;;;;8.73;5.90;;;;;;;;;;5035507;28;20917;-55
2022/12/19 14:23:38;;;;;;;11.33;6.80;;;;;;;;;;5056117;28;20514;-54
2022/12/19 14:26:04;;;;;;;7.80;6.00;;;;;;;;;;5016394;28;20826;-55
2022/12/19 14:28:36;;;;;;;12.17;6.80;;;;;;;;;;5059703;28;20439;-61
2022/12/19 14:31:03;;;;;;;8.43;6.67;;;;;;;;;;5054017;28;20428;-55
2022/12/19 14:33:32;;;;;;;12.17;7.43;;;;;;;;;;5052924;28;20443;-54
2022/12/19 14:35:58;;;;;;;10.60;7.00;;;;;;;;;;5055847;28;20456;-54
2022/12/19 14:38:24;;;;;;;9.83;6.47;;;;;;;;;;5034744;28;20433;-54
2022/12/19 14:40:50;;;;;;;13.67;8.00;;;;;;;;;;5059830;28;20414;-55
2022/12/19 14:46:25;;;;;;;7.80;5.70;;;;;;;;;;5060231;28;20436;-55
2022/12/19 14:48:58;;;;;;;8.47;7.07;;;;;;;;;;5031794;28;20468;-55
2022/12/19 14:51:34;;;;;;;12.00;7.57;;;;;;;;;;5051365;28;20421;-55
2022/12/19 14:54:16;;;;;;;7.60;6.37;;;;;;;;;;5046699;28;20479;-54